createdAt,value
2023-11-12T00:00:17.161Z,96588.72
2023-11-12T00:02:44.596Z,96592.97
2023-11-12T00:05:13.419Z,96604.28
2023-11-12T00:07:41.980Z,96602.25
2023-11-12T00:10:14.316Z,96597.03
2023-11-12T00:12:42.651Z,96608.16
2023-11-12T00:15:10.665Z,96605.78
2023-11-12T00:17:39.356Z,96611.97
2023-11-12T00:20:08.028Z,96611.72
2023-11-12T00:22:35.886Z,96611.50
2023-11-12T00:25:03.208Z,96618.59
2023-11-12T00:27:30.579Z,96626.41
2023-11-12T00:29:58.411Z,96624.03
2023-11-12T00:32:25.845Z,96631.63
2023-11-12T00:34:54.799Z,96630.94
2023-11-12T00:37:22.308Z,96633.41
2023-11-12T00:39:57.393Z,96644.44
2023-11-12T00:42:25.763Z,96640.63
2023-11-12T00:44:57.561Z,96633.75
2023-11-12T00:47:28.531Z,96632.22
2023-11-12T00:49:56.201Z,96630.44
2023-11-12T00:52:24.235Z,96630.91
2023-11-12T00:54:52.190Z,96624.97
2023-11-12T00:57:19.868Z,96618.00
2023-11-12T00:59:48.801Z,96618.72
2023-11-12T01:02:17.991Z,96619.78
2023-11-12T01:04:49.148Z,96619.53
2023-11-12T01:07:16.332Z,96617.91
2023-11-12T01:09:44.376Z,96627.13
2023-11-12T01:12:12.033Z,96620.25
2023-11-12T01:14:39.449Z,96625.22
2023-11-12T01:17:07.016Z,96620.50
2023-11-12T01:19:34.215Z,96631.03
2023-11-12T01:22:02.866Z,96625.69
2023-11-12T01:24:30.852Z,96621.19
2023-11-12T01:26:57.931Z,96626.63
2023-11-12T01:29:26.472Z,96626.16
2023-11-12T01:31:53.422Z,96620.94
2023-11-12T01:34:23.129Z,96631.69
2023-11-12T01:36:50.414Z,96624.72
2023-11-12T01:39:17.898Z,96637.75
2023-11-12T01:41:45.213Z,96627.31
2023-11-12T01:44:13.625Z,96634.19
2023-11-12T01:46:41.039Z,96639.38
2023-11-12T01:49:08.217Z,96629.41
2023-11-12T01:51:38.241Z,96634.38
2023-11-12T01:54:06.005Z,96624.66
2023-11-12T01:56:35.072Z,96639.56
2023-11-12T01:59:04.998Z,96637.91
2023-11-12T02:01:32.233Z,96633.84
2023-11-12T02:04:00.259Z,96633.13
2023-11-12T02:06:28.028Z,96636.91
2023-11-12T02:08:57.147Z,96636.69
2023-11-12T02:11:27.973Z,96633.47
2023-11-12T02:13:56.280Z,96642.13
2023-11-12T02:16:23.613Z,96635.47
2023-11-12T02:18:50.615Z,96633.31
2023-11-12T02:21:24.966Z,96638.03
2023-11-12T02:23:52.663Z,96636.34
2023-11-12T02:26:20.373Z,96637.75
2023-11-12T02:28:47.995Z,96645.56
2023-11-12T02:31:16.886Z,96634.91
2023-11-12T02:33:44.238Z,96635.81
2023-11-12T02:36:11.616Z,96639.97
2023-11-12T02:38:39.140Z,96641.50
2023-11-12T02:41:09.810Z,96642.69
2023-11-12T02:43:37.359Z,96633.31
2023-11-12T02:46:05.879Z,96645.50
2023-11-12T02:49:00.896Z,96631.44
2023-11-12T02:51:28.147Z,96634.00
2023-11-12T02:53:56.130Z,96626.28
2023-11-12T02:56:23.799Z,96634.03
2023-11-12T02:58:51.428Z,96631.56
2023-11-12T03:01:20.954Z,96627.03
2023-11-12T03:03:48.609Z,96636.69
2023-11-12T03:06:15.932Z,96635.56
2023-11-12T03:08:43.100Z,96629.41
2023-11-12T03:11:14.015Z,96640.31
2023-11-12T03:13:41.440Z,96629.81
2023-11-12T03:16:09.072Z,96627.84
2023-11-12T03:18:36.447Z,96633.88
2023-11-12T03:21:07.048Z,96634.41
2023-11-12T03:23:34.950Z,96633.88
2023-11-12T03:26:02.187Z,96645.44
2023-11-12T03:28:30.169Z,96641.53
2023-11-12T03:30:57.586Z,96651.47
2023-11-12T03:33:25.439Z,96644.06
2023-11-12T03:35:53.604Z,96646.81
2023-11-12T03:38:23.825Z,96647.97
2023-11-12T03:40:52.573Z,96659.00
2023-11-12T03:43:20.398Z,96656.72
2023-11-12T03:45:48.429Z,96653.50
2023-11-12T03:48:15.988Z,96657.78
2023-11-12T03:50:43.629Z,96664.09
2023-11-12T03:53:11.185Z,96667.75
2023-11-12T03:55:38.211Z,96659.53
2023-11-12T03:58:05.367Z,96661.50
2023-11-12T04:00:33.726Z,96651.63
2023-11-12T04:03:01.528Z,96672.94
2023-11-12T04:05:28.841Z,96666.19
2023-11-12T04:07:56.195Z,96675.53
2023-11-12T04:10:23.169Z,96689.44
2023-11-12T04:12:50.861Z,96681.97
2023-11-12T04:15:18.331Z,96692.16
2023-11-12T04:17:46.536Z,96695.28
2023-11-12T04:20:15.692Z,96685.41
2023-11-12T04:22:42.816Z,96701.41
2023-11-12T04:25:13.556Z,96705.47
2023-11-12T04:27:41.083Z,96702.56
2023-11-12T04:30:09.283Z,96704.13
2023-11-12T04:32:37.090Z,96711.09
2023-11-12T04:35:04.244Z,96711.47
2023-11-12T04:37:31.362Z,96714.19
2023-11-12T04:39:58.595Z,96721.47
2023-11-12T04:42:26.743Z,96716.69
2023-11-12T04:44:54.114Z,96712.03
2023-11-12T04:47:21.134Z,96717.72
2023-11-12T04:49:48.348Z,96721.16
2023-11-12T04:52:16.051Z,96717.66
2023-11-12T04:54:52.281Z,96711.91
2023-11-12T04:57:20.072Z,96723.97
2023-11-12T04:59:48.031Z,96709.00
2023-11-12T05:02:14.917Z,96712.34
2023-11-12T05:04:48.324Z,96715.53
2023-11-12T05:07:15.584Z,96726.44
2023-11-12T05:09:43.195Z,96737.06
2023-11-12T05:12:10.824Z,96729.66
2023-11-12T05:14:37.629Z,96741.81
2023-11-12T05:17:06.667Z,96742.97
2023-11-12T05:19:33.953Z,96743.09
2023-11-12T05:22:00.801Z,96752.16
2023-11-12T05:24:27.728Z,96757.22
2023-11-12T05:26:54.913Z,96771.00
2023-11-12T05:29:21.597Z,96765.81
2023-11-12T05:31:48.466Z,96772.38
2023-11-12T05:34:15.806Z,96779.47
2023-11-12T05:36:42.731Z,96775.91
2023-11-12T05:39:13.022Z,96791.50
2023-11-12T05:41:40.119Z,96793.84
2023-11-12T05:44:07.180Z,96792.16
2023-11-12T05:46:33.990Z,96799.75
2023-11-12T05:49:01.350Z,96809.19
2023-11-12T05:51:28.253Z,96806.97
2023-11-12T05:53:55.196Z,96806.19
2023-11-12T05:56:22.163Z,96803.72
2023-11-12T05:58:49.493Z,96811.84
2023-11-12T06:01:20.311Z,96812.28
2023-11-12T06:03:47.460Z,96826.41
2023-11-12T06:06:14.434Z,96821.66
2023-11-12T06:08:41.536Z,96824.19
2023-11-12T06:11:08.584Z,96828.13
2023-11-12T06:13:35.470Z,96837.31
2023-11-12T06:16:03.135Z,96835.13
2023-11-12T06:18:30.129Z,96827.72
2023-11-12T06:20:57.476Z,96832.34
2023-11-12T06:23:24.823Z,96828.78
2023-11-12T06:25:51.962Z,96834.22
2023-11-12T06:28:19.253Z,96820.19
2023-11-12T06:30:46.441Z,96830.69
2023-11-12T06:33:13.344Z,96835.25
2023-11-12T06:35:41.716Z,96832.75
2023-11-12T06:38:08.854Z,96829.94
2023-11-12T06:40:35.756Z,96833.97
2023-11-12T06:43:02.858Z,96840.00
2023-11-12T06:45:29.732Z,96845.97
2023-11-12T06:47:56.986Z,96835.94
2023-11-12T06:50:24.035Z,96838.00
2023-11-12T06:52:53.884Z,96847.69
2023-11-12T06:55:22.039Z,96858.44
2023-11-12T06:57:51.000Z,96847.84
2023-11-12T07:00:21.187Z,96850.03
2023-11-12T07:02:48.224Z,96858.84
2023-11-12T07:05:18.254Z,96873.34
2023-11-12T07:07:45.530Z,96881.88
2023-11-12T07:10:13.610Z,96877.53
2023-11-12T07:12:40.648Z,96887.97
2023-11-12T07:15:08.536Z,96889.63
2023-11-12T07:17:36.928Z,96893.31
2023-11-12T07:20:04.289Z,96897.63
2023-11-12T07:22:32.986Z,96887.06
2023-11-12T07:25:01.473Z,96889.78
2023-11-12T07:27:28.672Z,96896.19
2023-11-12T07:29:55.590Z,96893.78
2023-11-12T07:32:22.520Z,96888.06
2023-11-12T07:34:49.484Z,96884.59
2023-11-12T07:37:16.667Z,96896.09
2023-11-12T07:39:43.657Z,96897.69
2023-11-12T07:42:13.524Z,96905.31
2023-11-12T07:44:40.493Z,96902.19
2023-11-12T07:47:07.567Z,96897.41
2023-11-12T07:49:34.542Z,96891.94
2023-11-12T07:52:04.576Z,96890.72
2023-11-12T07:54:31.584Z,96887.13
2023-11-12T07:56:59.283Z,96907.41
2023-11-12T07:59:26.622Z,96911.19
2023-11-12T08:01:53.407Z,96906.13
2023-11-12T08:04:20.562Z,96909.09
2023-11-12T08:06:49.982Z,96915.91
2023-11-12T08:09:21.293Z,96915.16
2023-11-12T08:11:49.197Z,96912.69
2023-11-12T08:14:16.464Z,96914.16
2023-11-12T08:16:43.984Z,96918.84
2023-11-12T08:19:10.875Z,96923.59
2023-11-12T08:21:37.912Z,96918.41
2023-11-12T08:24:06.059Z,96916.81
2023-11-12T08:26:36.480Z,96912.16
2023-11-12T08:29:03.514Z,96921.88
2023-11-12T08:31:30.987Z,96923.00
2023-11-12T08:33:57.993Z,96923.56
2023-11-12T08:36:24.960Z,96919.88
2023-11-12T08:38:52.224Z,96919.19
2023-11-12T08:41:20.246Z,96911.44
2023-11-12T08:43:48.219Z,96910.91
2023-11-12T08:46:16.705Z,96915.47
2023-11-12T08:48:47.286Z,96919.47
2023-11-12T08:51:18.235Z,96923.06
2023-11-12T08:53:49.595Z,96920.00
2023-11-12T08:56:17.415Z,96913.75
2023-11-12T08:58:44.908Z,96924.34
2023-11-12T09:01:13.537Z,96910.47
2023-11-12T09:03:40.460Z,96918.34
2023-11-12T09:06:07.843Z,96924.56
2023-11-12T09:08:35.119Z,96924.53
2023-11-12T09:11:02.575Z,96920.66
2023-11-12T09:13:30.138Z,96913.88
2023-11-12T09:15:57.375Z,96914.44
2023-11-12T09:18:28.559Z,96913.00
2023-11-12T09:20:56.296Z,96924.09
2023-11-12T09:23:23.205Z,96921.59
2023-11-12T09:25:51.023Z,96915.28
2023-11-12T09:28:19.207Z,96908.56
2023-11-12T09:30:54.499Z,96901.19
2023-11-12T09:33:27.954Z,96897.31
2023-11-12T09:35:55.678Z,96902.16
2023-11-12T09:38:22.776Z,96894.72
2023-11-12T09:40:51.542Z,96894.53
2023-11-12T09:43:18.973Z,96886.84
2023-11-12T09:45:50.376Z,96893.97
2023-11-12T09:48:37.261Z,96886.28
2023-11-12T09:51:09.514Z,96891.47
2023-11-12T09:53:43.814Z,96897.94
2023-11-12T09:56:11.108Z,96892.88
2023-11-12T09:58:42.312Z,96886.91
2023-11-12T10:01:10.909Z,96883.66
2023-11-12T10:03:42.897Z,96878.44
2023-11-12T10:06:12.816Z,96881.75
2023-11-12T10:08:40.116Z,96874.78
2023-11-12T10:11:32.254Z,96872.63
2023-11-12T10:14:16.227Z,96883.94
2023-11-12T10:16:43.643Z,96869.53
2023-11-12T10:19:15.795Z,96873.19
2023-11-12T10:22:03.331Z,96864.69
2023-11-12T10:24:32.428Z,96864.06
2023-11-12T10:27:07.037Z,96861.78
2023-11-12T10:29:33.842Z,96860.19
2023-11-12T10:32:00.940Z,96862.47
2023-11-12T10:34:28.883Z,96866.78
2023-11-12T10:37:10.660Z,96867.25
2023-11-12T10:39:45.516Z,96858.19
2023-11-12T10:42:15.221Z,96870.41
2023-11-12T10:44:45.176Z,96866.47
2023-11-12T10:47:13.011Z,96868.47
2023-11-12T10:49:42.106Z,96863.50
2023-11-12T10:52:10.010Z,96874.06
2023-11-12T10:54:37.609Z,96865.78
2023-11-12T10:57:05.887Z,96868.09
2023-11-12T10:59:35.636Z,96868.25
2023-11-12T11:02:03.093Z,96865.09
2023-11-12T11:04:33.216Z,96866.88
2023-11-12T11:07:01.335Z,96868.69
2023-11-12T11:09:30.050Z,96869.00
2023-11-12T11:11:57.663Z,96874.78
2023-11-12T11:14:31.163Z,96866.75
2023-11-12T11:16:59.232Z,96872.31
2023-11-12T11:19:50.716Z,96873.97
2023-11-12T11:22:35.562Z,96871.53
2023-11-12T11:25:28.649Z,96879.44
2023-11-12T11:28:21.314Z,96882.16
2023-11-12T11:31:14.810Z,96878.81
2023-11-12T11:33:52.788Z,96870.47
2023-11-12T11:36:24.143Z,96858.38
2023-11-12T11:39:12.002Z,96869.06
2023-11-12T11:41:57.684Z,96866.06
2023-11-12T11:44:36.517Z,96878.59
2023-11-12T11:47:21.449Z,96880.38
2023-11-12T11:50:00.533Z,96884.50
2023-11-12T11:52:31.044Z,96878.13
2023-11-12T11:55:17.283Z,96873.06
2023-11-12T11:57:49.502Z,96871.69
2023-11-12T12:00:18.078Z,96876.97
2023-11-12T12:02:46.496Z,96882.75
2023-11-12T12:05:32.379Z,96890.31
2023-11-12T12:08:02.985Z,96881.81
2023-11-12T12:10:31.255Z,96884.41
2023-11-12T12:12:58.512Z,96892.34
2023-11-12T12:15:25.757Z,96892.16
2023-11-12T12:17:53.233Z,96895.09
2023-11-12T12:20:20.241Z,96900.06
2023-11-12T12:22:50.581Z,96893.44
2023-11-12T12:25:18.089Z,96893.09
2023-11-12T12:27:55.253Z,96899.72
2023-11-12T12:30:28.322Z,96896.25
2023-11-12T12:35:24.540Z,96895.34
2023-11-12T12:37:51.660Z,96896.63
2023-11-12T12:40:30.290Z,96909.13
2023-11-12T12:42:59.146Z,96908.06
2023-11-12T12:45:26.594Z,96919.84
2023-11-12T12:47:54.820Z,96919.19
2023-11-12T12:50:27.478Z,96920.59
2023-11-12T12:53:17.636Z,96924.66
2023-11-12T12:55:45.796Z,96922.63
2023-11-12T12:58:15.901Z,96913.06
2023-11-12T13:00:49.612Z,96916.00
2023-11-12T13:03:28.442Z,96911.03
2023-11-12T13:06:01.724Z,96896.06
2023-11-12T13:08:33.355Z,96890.78
2023-11-12T13:14:51.583Z,96901.19
2023-11-12T13:17:19.107Z,96905.75
2023-11-12T13:19:47.311Z,96930.69
2023-11-12T13:22:14.861Z,96929.59
2023-11-12T13:25:09.222Z,96935.97
2023-11-12T13:27:37.046Z,96927.09
2023-11-12T13:39:06.146Z,96928.78
2023-11-12T13:41:33.005Z,96927.56
2023-11-12T13:44:00.514Z,96941.41
2023-11-12T13:46:28.753Z,96941.41
2023-11-12T13:48:57.391Z,96934.75
2023-11-12T13:51:27.209Z,96927.03
2023-11-12T13:56:54.319Z,96945.44
2023-11-12T13:59:21.713Z,96954.47
2023-11-12T14:01:54.077Z,96948.09
2023-11-12T14:04:58.268Z,96949.06
2023-11-12T14:07:28.249Z,96950.88
2023-11-12T14:09:55.351Z,96958.09
2023-11-12T14:12:26.085Z,96952.41
2023-11-12T14:14:54.975Z,96947.88
2023-11-12T14:17:25.841Z,96939.16
2023-11-12T14:19:54.980Z,96935.69
2023-11-12T14:22:21.829Z,96931.56
2023-11-12T14:24:49.025Z,96932.16
2023-11-12T14:27:17.664Z,96940.97
2023-11-12T14:29:53.257Z,96942.38
2023-11-12T14:32:25.338Z,96943.75
2023-11-12T14:34:53.830Z,96948.59
2023-11-12T14:37:23.038Z,96938.78
2023-11-12T14:39:50.819Z,96940.31
2023-11-12T14:42:22.226Z,96944.91
2023-11-12T14:44:52.686Z,96937.56
2023-11-12T14:47:19.988Z,96939.09
2023-11-12T14:49:47.535Z,96940.06
2023-11-12T14:52:17.055Z,96942.97
2023-11-12T14:54:45.288Z,96947.25
2023-11-12T14:57:16.457Z,96952.91
2023-11-12T14:59:46.512Z,96954.44
2023-11-12T15:02:14.794Z,96954.03
2023-11-12T15:04:42.704Z,96950.13
2023-11-12T15:07:12.318Z,96956.38
2023-11-12T15:09:42.500Z,96954.13
2023-11-12T15:12:10.304Z,96949.59
2023-11-12T15:14:37.545Z,96952.03
2023-11-12T15:17:05.585Z,96951.47
2023-11-12T15:19:33.137Z,96956.06
2023-11-12T15:22:00.343Z,96977.47
2023-11-12T15:24:27.272Z,96964.91
2023-11-12T15:26:54.987Z,96968.47
2023-11-12T15:29:24.775Z,96981.03
2023-11-12T15:31:53.553Z,96994.81
2023-11-12T15:34:20.926Z,96983.78
2023-11-12T15:36:49.226Z,96993.16
2023-11-12T15:39:21.452Z,96997.28
2023-11-12T15:41:51.702Z,96981.03
2023-11-12T15:44:19.073Z,96980.97
2023-11-12T15:46:46.456Z,96992.69
2023-11-12T15:49:14.228Z,96996.72
2023-11-12T15:51:43.595Z,96987.03
2023-11-12T15:54:12.406Z,96989.94
2023-11-12T15:56:39.684Z,96995.31
2023-11-12T15:59:07.088Z,97003.59
2023-11-12T16:01:37.105Z,97005.50
2023-11-12T16:04:09.503Z,96991.88
2023-11-12T16:06:37.074Z,96992.81
2023-11-12T16:09:09.816Z,96999.44
2023-11-12T16:11:37.434Z,97001.34
2023-11-12T16:14:05.326Z,97001.31
2023-11-12T16:16:32.160Z,97005.50
2023-11-12T16:18:59.555Z,96999.59
2023-11-12T16:21:26.527Z,97004.00
2023-11-12T16:23:53.581Z,97003.53
2023-11-12T16:26:21.249Z,96996.50
2023-11-12T16:29:01.505Z,97001.41
2023-11-12T16:31:31.774Z,96996.41
2023-11-12T16:33:59.321Z,97000.19
2023-11-12T16:36:27.031Z,97005.38
2023-11-12T16:38:59.197Z,96997.28
2023-11-12T16:41:27.604Z,96995.31
2023-11-12T16:43:56.126Z,97005.47
2023-11-12T16:46:37.622Z,97003.13
2023-11-12T16:49:04.905Z,97012.03
2023-11-12T16:51:31.889Z,97006.47
2023-11-12T16:53:59.820Z,97015.03
2023-11-12T16:56:35.926Z,97016.50
2023-11-12T16:59:05.306Z,97022.66
2023-11-12T17:01:33.036Z,97024.00
2023-11-12T17:04:01.111Z,97021.50
2023-11-12T17:06:29.303Z,97024.25
2023-11-12T17:08:57.455Z,97027.25
2023-11-12T17:11:25.824Z,97023.91
2023-11-12T17:13:55.567Z,97025.00
2023-11-12T17:16:23.561Z,97035.56
2023-11-12T17:18:50.878Z,97016.78
2023-11-12T17:21:18.868Z,97022.25
2023-11-12T17:23:47.852Z,97031.66
2023-11-12T17:26:15.524Z,97032.50
2023-11-12T17:28:42.652Z,97030.56
2023-11-12T17:31:09.910Z,97027.31
2023-11-12T17:33:38.161Z,97024.59
2023-11-12T17:36:06.669Z,97024.00
2023-11-12T17:38:34.406Z,97025.81
2023-11-12T17:41:01.698Z,97021.50
2023-11-12T17:43:28.716Z,97011.63
2023-11-12T17:45:56.203Z,97011.03
2023-11-12T17:48:23.370Z,97011.03
2023-11-12T17:50:50.729Z,97026.75
2023-11-12T17:53:18.839Z,97019.84
2023-11-12T17:55:46.212Z,97030.09
2023-11-12T17:58:13.406Z,97026.50
2023-11-12T18:00:42.714Z,97028.41
2023-11-12T18:03:10.316Z,97028.19
2023-11-12T18:05:38.032Z,97035.75
2023-11-12T18:08:08.065Z,97031.34
2023-11-12T18:10:35.004Z,97038.13
2023-11-12T18:13:02.169Z,97039.81
2023-11-12T18:15:30.228Z,97045.88
2023-11-12T18:17:57.674Z,97045.16
2023-11-12T18:20:25.497Z,97056.13
2023-11-12T18:22:53.878Z,97057.06
2023-11-12T18:25:24.012Z,97055.84
2023-11-12T18:27:50.933Z,97054.44
2023-11-12T18:30:18.634Z,97056.94
2023-11-12T18:32:45.685Z,97054.69
2023-11-12T18:35:13.014Z,97050.31
2023-11-12T18:37:42.213Z,97056.13
2023-11-12T18:40:16.090Z,97059.66
2023-11-12T18:42:46.382Z,97056.81
2023-11-12T18:45:20.838Z,97054.53
2023-11-12T18:47:48.267Z,97060.72
2023-11-12T18:50:15.314Z,97060.59
2023-11-12T18:52:42.790Z,97055.34
2023-11-12T18:55:10.904Z,97059.19
2023-11-12T18:57:38.178Z,97048.38
2023-11-12T19:00:08.167Z,97059.66
2023-11-12T19:02:36.613Z,97062.44
2023-11-12T19:05:05.930Z,97067.66
2023-11-12T19:07:33.999Z,97067.66
2023-11-12T19:10:01.952Z,97070.28
2023-11-12T19:12:30.288Z,97058.63
2023-11-12T19:14:59.173Z,97062.66
2023-11-12T19:17:28.095Z,97070.47
2023-11-12T19:19:55.303Z,97066.69
2023-11-12T19:22:23.453Z,97068.16
2023-11-12T19:24:51.699Z,97063.97
2023-11-12T19:27:19.947Z,97070.28
2023-11-12T19:29:48.649Z,97080.41
2023-11-12T19:32:20.456Z,97073.38
2023-11-12T19:34:52.561Z,97076.97
2023-11-12T19:37:57.134Z,97079.78
2023-11-12T19:40:27.109Z,97068.63
2023-11-12T19:43:04.118Z,97071.84
2023-11-12T19:45:35.410Z,97072.09
2023-11-12T19:48:02.885Z,97077.44
2023-11-12T19:50:29.954Z,97082.53
2023-11-12T19:52:58.034Z,97075.19
2023-11-12T19:55:25.137Z,97082.19
2023-11-12T19:57:54.164Z,97081.97
2023-11-12T20:00:23.035Z,97089.09
2023-11-12T20:02:51.942Z,97093.63
2023-11-12T20:05:19.769Z,97110.28
2023-11-12T20:07:46.915Z,97124.19
2023-11-12T20:10:15.148Z,97116.94
2023-11-12T20:12:43.986Z,97116.22
2023-11-12T20:15:11.859Z,97112.56
2023-11-12T20:17:40.163Z,97104.56
2023-11-12T20:20:08.592Z,97104.56
2023-11-12T20:22:36.723Z,97102.31
2023-11-12T20:25:08.882Z,97110.16
2023-11-12T20:27:42.006Z,97095.50
2023-11-12T20:30:11.384Z,97102.91
2023-11-12T20:32:45.447Z,97097.44
2023-11-12T20:35:12.952Z,97090.50
2023-11-12T20:37:40.798Z,97102.91
2023-11-12T20:40:11.806Z,97120.88
2023-11-12T20:42:44.723Z,97131.13
2023-11-12T20:45:18.755Z,97130.31
2023-11-12T20:47:53.854Z,97120.75
2023-11-12T20:50:21.809Z,97122.16
2023-11-12T20:52:50.677Z,97131.72
2023-11-12T20:55:18.803Z,97123.25
2023-11-12T20:57:51.022Z,97104.44
2023-11-12T21:00:20.863Z,97109.38
2023-11-12T21:02:51.114Z,97108.63
2023-11-12T21:05:22.472Z,97109.69
2023-11-12T21:07:50.606Z,97119.34
2023-11-12T21:10:22.320Z,97121.00
2023-11-12T21:12:53.779Z,97117.69
2023-11-12T21:15:21.446Z,97132.31
2023-11-12T21:17:49.330Z,97133.38
2023-11-12T21:20:18.532Z,97124.81
2023-11-12T21:22:46.182Z,97114.69
2023-11-12T21:25:18.018Z,97112.91
2023-11-12T21:27:46.335Z,97113.28
2023-11-12T21:30:16.477Z,97117.53
2023-11-12T21:32:45.880Z,97125.53
2023-11-12T21:35:14.202Z,97126.72
2023-11-12T21:37:41.277Z,97117.78
2023-11-12T21:40:10.266Z,97114.59
2023-11-12T21:42:38.776Z,97114.84
2023-11-12T21:45:06.859Z,97105.78
2023-11-12T21:47:41.907Z,97101.72
2023-11-12T21:50:17.267Z,97105.78
2023-11-12T21:52:44.859Z,97100.31
2023-11-12T21:55:12.662Z,97102.44
2023-11-12T21:57:40.056Z,97099.38
2023-11-12T22:00:13.349Z,97101.25
2023-11-12T22:02:42.150Z,97098.66
2023-11-12T22:05:11.104Z,97099.59
2023-11-12T22:07:38.963Z,97099.47
2023-11-12T22:10:10.158Z,97090.56
2023-11-12T22:12:40.451Z,97091.97
2023-11-12T22:15:10.598Z,97091.38
2023-11-12T22:17:38.340Z,97082.00
2023-11-12T22:20:07.408Z,97084.97
2023-11-12T22:22:35.641Z,97087.50
2023-11-12T22:25:11.429Z,97081.75
2023-11-12T22:27:50.342Z,97073.91
2023-11-12T22:30:25.022Z,97060.97
2023-11-12T22:32:55.019Z,97064.78
2023-11-12T22:35:25.231Z,97068.91
2023-11-12T22:37:53.261Z,97058.44
2023-11-12T22:40:21.853Z,97061.31
2023-11-12T22:42:51.601Z,97067.25
2023-11-12T22:45:21.613Z,97066.06
2023-11-12T22:47:49.189Z,97062.97
2023-11-12T22:50:22.869Z,97061.56
2023-11-12T22:52:53.570Z,97052.75
2023-11-12T22:55:21.031Z,97062.75
2023-11-12T22:57:52.821Z,97068.91
2023-11-12T23:00:42.990Z,97060.97
2023-11-12T23:03:17.554Z,97059.41
2023-11-12T23:05:49.488Z,97066.78
2023-11-12T23:08:17.485Z,97060.97
2023-11-12T23:10:45.138Z,97058.44
2023-11-12T23:13:18.864Z,97051.31
2023-11-12T23:15:46.611Z,97043.72
2023-11-12T23:18:14.216Z,97035.63
2023-11-12T23:20:42.258Z,97034.63
2023-11-12T23:23:11.468Z,97030.00
2023-11-12T23:25:39.327Z,97043.09
2023-11-12T23:28:06.700Z,97046.06
2023-11-12T23:30:35.264Z,97045.59
2023-11-12T23:33:02.833Z,97048.91
2023-11-12T23:35:33.206Z,97053.81
2023-11-12T23:38:00.328Z,97047.59
2023-11-12T23:40:29.237Z,97054.63
2023-11-12T23:42:56.512Z,97057.50
2023-11-12T23:45:23.533Z,97061.75
2023-11-12T23:47:50.823Z,97069.97
2023-11-12T23:50:18.037Z,97061.88
2023-11-12T23:52:45.636Z,97061.34
2023-11-12T23:55:13.097Z,97066.94
2023-11-12T23:57:42.359Z,97066.34
